createdAt,value
2017-11-10T00:02:06.896Z,10.00
2017-11-10T00:04:39.334Z,10.00
2017-11-10T00:07:07.876Z,10.00
2017-11-10T00:09:36.725Z,10.10
2017-11-10T00:12:06.250Z,10.00
2017-11-10T00:14:35.714Z,10.00
2017-11-10T00:17:08.176Z,10.00
2017-11-10T00:19:37.176Z,10.00
2017-11-10T00:22:06.774Z,10.00
2017-11-10T00:24:39.705Z,9.90
2017-11-10T00:27:08.234Z,9.90
2017-11-10T00:29:41.816Z,9.90
2017-11-10T00:32:10.104Z,9.90
2017-11-10T00:34:41.936Z,9.80
2017-11-10T00:37:10.795Z,9.80
2017-11-10T00:39:43.425Z,9.90
2017-11-10T00:42:11.956Z,9.80
2017-11-10T00:44:41.605Z,9.80
2017-11-10T00:47:11.355Z,9.80
2017-11-10T00:49:41.175Z,9.80
2017-11-10T00:52:10.075Z,9.90
2017-11-10T00:54:42.764Z,9.90
2017-11-10T00:57:11.487Z,9.90
2017-11-10T00:59:40.956Z,9.80
2017-11-10T01:02:09.905Z,9.80
2017-11-10T01:04:39.925Z,9.90
2017-11-10T01:07:08.279Z,10.00
2017-11-10T01:09:39.705Z,10.00
2017-11-10T01:12:09.215Z,10.00
2017-11-10T01:14:39.365Z,10.00
2017-11-10T01:17:10.326Z,10.00
2017-11-10T01:19:43.445Z,10.00
2017-11-10T01:22:17.781Z,10.10
2017-11-10T01:24:46.746Z,10.00
2017-11-10T01:27:15.466Z,10.10
2017-11-10T01:29:44.885Z,10.10
2017-11-10T01:32:14.725Z,10.00
2017-11-10T01:34:46.874Z,10.00
2017-11-10T01:37:19.496Z,10.00
2017-11-10T01:39:48.125Z,10.00
2017-11-10T01:42:17.346Z,10.00
2017-11-10T01:44:48.035Z,10.00
2017-11-10T01:47:17.484Z,10.00
2017-11-10T01:50:01.076Z,10.00
2017-11-10T01:52:30.125Z,9.90
2017-11-10T01:54:58.665Z,9.90
2017-11-10T01:57:28.066Z,10.00
2017-11-10T01:59:59.924Z,10.00
2017-11-10T02:02:31.365Z,10.00
2017-11-10T02:05:04.336Z,10.00
2017-11-10T02:07:33.405Z,10.00
2017-11-10T02:10:05.326Z,10.00
2017-11-10T02:12:34.145Z,9.90
2017-11-10T02:15:06.705Z,9.80
2017-11-10T02:17:35.816Z,9.80
2017-11-10T02:20:05.825Z,9.80
2017-11-10T02:22:37.786Z,9.80
2017-11-10T02:25:11.576Z,9.80
2017-11-10T02:27:43.004Z,9.80
2017-11-10T02:30:16.896Z,9.70
2017-11-10T02:32:49.135Z,9.70
2017-11-10T02:35:21.467Z,9.70
2017-11-10T02:37:50.457Z,9.80
2017-11-10T02:40:21.996Z,9.80
2017-11-10T02:42:53.700Z,9.80
2017-11-10T02:45:24.476Z,9.80
2017-11-10T02:47:54.189Z,9.80
2017-11-10T02:50:23.035Z,9.80
2017-11-10T02:52:54.259Z,9.80
2017-11-10T02:55:22.816Z,9.80
2017-11-10T02:57:51.395Z,9.80
2017-11-10T03:00:24.435Z,9.80
2017-11-10T03:02:52.885Z,9.80
2017-11-10T03:05:25.426Z,9.80
2017-11-10T03:07:54.635Z,9.80
2017-11-10T03:10:24.256Z,9.80
2017-11-10T03:12:53.115Z,9.90
2017-11-10T03:15:22.495Z,9.90
2017-11-10T03:17:52.362Z,9.80
2017-11-10T03:20:21.432Z,9.90
2017-11-10T03:22:52.556Z,9.90
2017-11-10T03:25:22.845Z,10.00
2017-11-10T03:27:53.546Z,9.90
2017-11-10T03:30:26.381Z,9.80
2017-11-10T03:32:54.985Z,9.90
2017-11-10T03:35:23.536Z,9.90
2017-11-10T03:37:52.594Z,9.90
2017-11-10T03:40:21.405Z,9.90
2017-11-10T03:42:50.115Z,9.90
2017-11-10T03:45:25.805Z,9.90
2017-11-10T03:47:55.296Z,10.00
2017-11-10T03:50:26.165Z,10.00
2017-11-10T03:52:57.103Z,10.00
2017-11-10T03:55:27.947Z,10.00
2017-11-10T03:57:59.711Z,10.00
2017-11-10T04:00:28.486Z,10.10
2017-11-10T04:02:57.165Z,10.10
2017-11-10T04:05:30.106Z,10.00
2017-11-10T04:08:02.475Z,10.00
2017-11-10T04:10:33.235Z,10.00
2017-11-10T04:13:04.534Z,10.00
2017-11-10T04:15:37.105Z,10.00
2017-11-10T04:18:08.595Z,10.00
2017-11-10T04:20:38.106Z,9.80
2017-11-10T04:23:07.365Z,9.80
2017-11-10T04:25:37.715Z,9.70
2017-11-10T04:28:07.134Z,9.80
2017-11-10T04:30:38.806Z,9.90
2017-11-10T04:33:11.364Z,9.90
2017-11-10T04:35:43.516Z,9.80
2017-11-10T04:38:17.274Z,9.80
2017-11-10T04:40:49.445Z,9.80
2017-11-10T04:43:20.187Z,9.80
2017-11-10T04:45:50.600Z,9.80
2017-11-10T04:48:19.396Z,9.70
2017-11-10T04:50:48.155Z,9.80
2017-11-10T04:53:19.325Z,9.70
2017-11-10T04:55:53.674Z,9.70
2017-11-10T04:58:22.790Z,9.70
2017-11-10T05:00:52.535Z,9.70
2017-11-10T05:03:21.324Z,9.60
2017-11-10T05:05:57.334Z,9.70
2017-11-10T05:08:28.015Z,9.60
2017-11-10T05:10:56.745Z,9.60
2017-11-10T05:13:28.206Z,9.60
2017-11-10T05:15:59.285Z,9.60
2017-11-10T05:18:28.646Z,9.50
2017-11-10T05:20:59.109Z,9.60
2017-11-10T05:23:27.554Z,9.60
2017-11-10T05:25:57.179Z,9.70
2017-11-10T05:28:29.046Z,9.70
2017-11-10T05:31:00.635Z,9.70
2017-11-10T05:33:29.426Z,9.70
2017-11-10T05:36:02.145Z,9.70
2017-11-10T05:38:32.798Z,9.70
2017-11-10T05:41:01.775Z,9.70
2017-11-10T05:43:31.966Z,9.70
2017-11-10T05:46:01.684Z,9.60
2017-11-10T05:48:32.395Z,9.60
2017-11-10T05:51:03.804Z,9.60
2017-11-10T05:53:35.016Z,9.60
2017-11-10T05:56:05.855Z,9.70
2017-11-10T05:58:38.435Z,9.60
2017-11-10T06:01:09.905Z,9.60
2017-11-10T06:03:46.356Z,9.60
2017-11-10T06:06:22.646Z,9.50
2017-11-10T06:09:00.108Z,9.50
2017-11-10T06:11:29.626Z,9.50
2017-11-10T06:13:58.235Z,9.50
2017-11-10T06:16:27.987Z,9.50
2017-11-10T06:18:56.728Z,9.50
2017-11-10T06:21:25.315Z,9.50
2017-11-10T06:23:55.865Z,9.50
2017-11-10T06:26:24.786Z,9.60
2017-11-10T06:28:53.966Z,9.60
2017-11-10T06:31:22.521Z,9.50
2017-11-10T06:33:51.152Z,9.70
2017-11-10T06:36:20.482Z,9.60
2017-11-10T06:38:48.865Z,9.60
2017-11-10T06:41:17.541Z,9.60
2017-11-10T06:43:46.245Z,9.60
2017-11-10T06:46:14.876Z,9.60
2017-11-10T06:48:44.505Z,9.70
2017-11-10T06:51:13.357Z,9.70
2017-11-10T06:53:41.738Z,9.80
2017-11-10T06:56:09.910Z,9.90
2017-11-10T06:58:42.006Z,9.80
2017-11-10T07:01:10.766Z,9.80
2017-11-10T07:03:42.846Z,9.70
2017-11-10T07:06:12.062Z,9.80
2017-11-10T07:08:40.547Z,9.80
2017-11-10T07:11:09.133Z,9.80
2017-11-10T07:13:39.835Z,9.70
2017-11-10T07:16:11.475Z,9.80
2017-11-10T07:18:40.246Z,9.80
2017-11-10T07:21:12.644Z,9.80
2017-11-10T07:23:45.624Z,9.70
2017-11-10T07:26:17.309Z,9.70
2017-11-10T07:28:45.855Z,9.70
2017-11-10T07:31:15.234Z,9.70
2017-11-10T07:33:48.144Z,9.80
2017-11-10T07:36:20.095Z,9.80
2017-11-10T07:38:50.665Z,9.90
2017-11-10T07:41:23.524Z,9.80
2017-11-10T07:43:54.495Z,9.70
2017-11-10T07:46:27.216Z,9.70
2017-11-10T07:48:55.715Z,9.70
2017-11-10T07:51:26.086Z,9.70
2017-11-10T07:53:56.694Z,9.70
2017-11-10T07:56:25.386Z,9.70
2017-11-10T07:58:55.098Z,9.80
2017-11-10T08:01:25.056Z,9.80
2017-11-10T08:03:54.595Z,9.90
2017-11-10T08:06:23.774Z,9.90
2017-11-10T08:08:52.871Z,9.90
2017-11-10T08:11:21.703Z,9.90
2017-11-10T08:13:50.565Z,9.90
2017-11-10T08:16:20.475Z,9.90
2017-11-10T08:18:49.236Z,9.90
2017-11-10T08:21:18.155Z,9.90
2017-11-10T08:23:47.204Z,9.90
2017-11-10T08:26:15.907Z,9.90
2017-11-10T08:28:45.406Z,9.80
2017-11-10T08:31:14.546Z,9.90
2017-11-10T08:33:44.086Z,9.90
2017-11-10T08:36:12.836Z,9.90
2017-11-10T08:38:42.075Z,9.90
2017-11-10T08:41:10.576Z,9.90
2017-11-10T08:43:39.286Z,10.00
2017-11-10T08:46:09.034Z,10.10
2017-11-10T08:48:37.799Z,10.10
2017-11-10T08:51:07.035Z,10.10
2017-11-10T08:53:35.785Z,10.00
2017-11-10T08:56:04.387Z,10.10
2017-11-10T08:58:32.937Z,10.10
2017-11-10T09:01:02.266Z,10.20
2017-11-10T09:03:31.126Z,10.20
2017-11-10T09:05:59.714Z,10.20
2017-11-10T09:08:28.616Z,10.20
2017-11-10T09:11:00.246Z,10.20
2017-11-10T09:13:29.265Z,10.20
2017-11-10T09:15:58.135Z,10.10
2017-11-10T09:18:29.228Z,10.10
2017-11-10T09:20:58.294Z,10.10
2017-11-10T09:23:29.547Z,10.10
2017-11-10T09:25:58.815Z,10.10
2017-11-10T09:28:31.124Z,10.20
2017-11-10T09:31:04.358Z,10.10
2017-11-10T09:33:34.136Z,10.20
2017-11-10T09:36:20.424Z,10.10
2017-11-10T09:38:50.675Z,10.00
2017-11-10T09:41:24.726Z,10.00
2017-11-10T09:44:01.664Z,10.10
2017-11-10T09:46:35.715Z,10.00
2017-11-10T09:49:20.145Z,10.10
2017-11-10T09:51:54.315Z,10.10
2017-11-10T09:54:29.184Z,10.10
2017-11-10T09:56:59.225Z,10.20
2017-11-10T09:59:39.986Z,10.10
2017-11-10T10:02:13.247Z,10.10
2017-11-10T10:04:49.732Z,10.10
2017-11-10T10:07:21.634Z,10.30
2017-11-10T10:09:53.775Z,10.40
2017-11-10T10:12:28.965Z,10.30
2017-11-10T10:15:03.846Z,10.20
2017-11-10T10:17:49.275Z,10.10
2017-11-10T10:20:33.885Z,10.10
2017-11-10T10:23:03.695Z,10.10
2017-11-10T10:25:33.156Z,10.10
2017-11-10T10:28:02.236Z,10.10
2017-11-10T10:30:31.150Z,10.10
2017-11-10T10:33:00.205Z,10.20
2017-11-10T10:35:29.429Z,10.20
2017-11-10T10:37:59.956Z,10.10
2017-11-10T10:40:28.656Z,10.10
2017-11-10T10:42:58.995Z,10.10
2017-11-10T10:45:29.474Z,10.20
2017-11-10T10:47:58.666Z,10.20
2017-11-10T10:50:27.724Z,10.30
2017-11-10T10:56:12.535Z,10.40
2017-11-10T10:58:42.078Z,10.50
2017-11-10T11:01:11.176Z,10.50
2017-11-10T11:03:39.907Z,10.50
2017-11-10T11:06:09.585Z,10.60
2017-11-10T11:08:38.425Z,10.60
2017-11-10T11:11:07.186Z,10.60
2017-11-10T11:13:36.608Z,10.60
2017-11-10T11:16:06.545Z,10.60
2017-11-10T11:18:35.750Z,10.60
2017-11-10T11:21:05.354Z,10.60
2017-11-10T11:23:35.106Z,10.50
2017-11-10T11:26:05.195Z,10.70
2017-11-10T11:28:34.124Z,10.60
2017-11-10T11:31:03.946Z,10.70
2017-11-10T11:33:34.304Z,10.60
2017-11-10T11:36:03.067Z,10.60
2017-11-10T11:38:32.215Z,10.60
2017-11-10T11:41:06.463Z,10.70
2017-11-10T11:43:36.277Z,10.70
2017-11-10T11:46:05.885Z,10.70
2017-11-10T11:48:35.656Z,10.70
2017-11-10T11:51:06.440Z,10.70
2017-11-10T11:53:36.806Z,10.80
2017-11-10T11:56:05.346Z,10.90
2017-11-10T11:58:34.091Z,10.90
2017-11-10T12:01:03.136Z,10.80
2017-11-10T12:03:32.654Z,10.90
2017-11-10T12:06:00.864Z,11.00
2017-11-10T12:08:29.795Z,11.10
2017-11-10T12:10:58.866Z,11.00
2017-11-10T12:13:28.708Z,10.80
2017-11-10T12:15:57.980Z,10.80
2017-11-10T12:18:27.535Z,10.80
2017-11-10T12:21:03.375Z,10.80
2017-11-10T12:23:32.366Z,10.90
2017-11-10T12:26:01.015Z,11.00
2017-11-10T12:28:29.475Z,11.00
2017-11-10T12:30:59.384Z,11.20
2017-11-10T12:33:28.435Z,11.20
2017-11-10T12:35:57.573Z,11.10
2017-11-10T12:38:26.555Z,11.10
2017-11-10T12:40:55.546Z,11.00
2017-11-10T12:43:24.215Z,11.00
2017-11-10T12:45:53.566Z,10.90
2017-11-10T12:48:22.904Z,10.90
2017-11-10T12:50:51.697Z,10.90
2017-11-10T12:53:20.436Z,10.90
2017-11-10T12:55:50.045Z,11.00
2017-11-10T12:58:19.826Z,11.00
2017-11-10T13:00:48.976Z,11.00
2017-11-10T13:03:17.590Z,11.10
2017-11-10T13:05:46.246Z,11.10
2017-11-10T13:08:14.700Z,11.10
2017-11-10T13:10:43.426Z,10.90
2017-11-10T13:13:12.187Z,11.00
2017-11-10T13:15:42.250Z,11.10
2017-11-10T13:18:11.136Z,11.10
2017-11-10T13:20:40.087Z,11.10
2017-11-10T13:23:09.476Z,11.10
2017-11-10T13:25:40.505Z,11.00
2017-11-10T13:28:09.314Z,11.00
2017-11-10T13:30:38.536Z,11.00
2017-11-10T13:33:07.046Z,11.00
2017-11-10T13:35:35.326Z,11.00
2017-11-10T13:38:03.818Z,11.00
2017-11-10T13:40:32.717Z,11.00
2017-11-10T13:43:01.666Z,11.00
2017-11-10T13:45:30.907Z,11.10
2017-11-10T13:47:59.996Z,11.00
2017-11-10T13:50:29.465Z,10.90
2017-11-10T13:52:58.726Z,10.90
2017-11-10T13:55:28.616Z,10.80
2017-11-10T13:57:57.076Z,10.80
2017-11-10T14:00:26.477Z,10.80
2017-11-10T14:02:55.136Z,10.80
2017-11-10T14:05:24.426Z,10.80
2017-11-10T14:07:53.556Z,10.90
2017-11-10T14:10:22.477Z,10.90
2017-11-10T14:12:51.145Z,10.90
2017-11-10T14:15:19.955Z,10.80
2017-11-10T14:17:49.815Z,10.90
2017-11-10T14:20:18.206Z,10.90
2017-11-10T14:22:46.967Z,11.00
2017-11-10T14:25:15.324Z,10.90
2017-11-10T14:27:44.957Z,10.70
2017-11-10T14:30:13.586Z,10.70
2017-11-10T14:32:43.516Z,10.50
2017-11-10T14:35:13.235Z,10.50
2017-11-10T14:37:42.716Z,10.50
2017-11-10T14:40:13.396Z,10.50
2017-11-10T14:42:44.366Z,10.40
2017-11-10T14:45:13.416Z,10.40
2017-11-10T14:47:42.617Z,10.40
2017-11-10T14:50:12.197Z,10.40
2017-11-10T14:52:42.436Z,10.50
2017-11-10T14:55:11.109Z,10.40
2017-11-10T14:57:40.421Z,10.50
2017-11-10T15:00:10.717Z,10.50
2017-11-10T15:02:40.707Z,10.50
2017-11-10T15:05:09.727Z,10.50
2017-11-10T15:07:39.476Z,10.40
2017-11-10T15:10:08.942Z,10.40
2017-11-10T15:12:38.457Z,10.20
2017-11-10T15:15:07.526Z,10.20
2017-11-10T15:17:36.577Z,10.20
2017-11-10T15:20:07.234Z,10.20
2017-11-10T15:22:36.405Z,10.20
2017-11-10T15:25:05.826Z,10.10
2017-11-10T15:27:34.675Z,10.00
2017-11-10T15:30:03.795Z,10.00
2017-11-10T15:32:32.577Z,10.00
2017-11-10T15:35:02.208Z,10.00
2017-11-10T15:37:31.116Z,10.00
2017-11-10T15:40:02.206Z,9.90
2017-11-10T15:42:31.425Z,9.90
2017-11-10T15:45:00.497Z,9.80
2017-11-10T15:47:29.355Z,9.80
2017-11-10T15:49:58.176Z,9.80
2017-11-10T15:52:27.186Z,9.90
2017-11-10T15:54:56.005Z,9.80
2017-11-10T15:57:25.256Z,9.80
2017-11-10T15:59:57.236Z,9.80
2017-11-10T16:02:25.725Z,9.90
2017-11-10T16:04:54.626Z,9.80
2017-11-10T16:07:23.649Z,9.80
2017-11-10T16:09:53.365Z,9.70
2017-11-10T16:12:23.605Z,9.70
2017-11-10T16:14:53.976Z,9.70
2017-11-10T16:17:22.760Z,9.60
2017-11-10T16:19:55.676Z,9.60
2017-11-10T16:22:24.338Z,9.50
2017-11-10T16:24:53.226Z,9.50
2017-11-10T16:27:22.178Z,9.50
2017-11-10T16:29:51.066Z,9.50
2017-11-10T16:32:20.005Z,9.50
2017-11-10T16:34:48.716Z,9.50
2017-11-10T16:37:17.575Z,9.40
2017-11-10T16:39:46.276Z,9.30
2017-11-10T16:42:22.074Z,9.30
2017-11-10T16:44:50.940Z,9.50
2017-11-10T16:47:19.366Z,9.60
2017-11-10T16:49:48.025Z,9.60
2017-11-10T16:52:16.914Z,9.50
2017-11-10T16:54:45.875Z,9.40
2017-11-10T16:57:17.715Z,9.40
2017-11-10T16:59:47.335Z,9.40
2017-11-10T17:02:18.545Z,9.50
2017-11-10T17:04:47.184Z,9.30
2017-11-10T17:07:18.076Z,9.30
2017-11-10T17:09:47.006Z,9.30
2017-11-10T17:12:15.837Z,9.30
2017-11-10T17:14:44.680Z,9.30
2017-11-10T17:17:14.675Z,9.40
2017-11-10T17:19:43.646Z,9.40
2017-11-10T17:22:12.447Z,9.40
2017-11-10T17:24:43.945Z,9.40
2017-11-10T17:27:12.874Z,9.30
2017-11-10T17:29:41.556Z,9.30
2017-11-10T17:32:10.555Z,9.40
2017-11-10T17:34:39.476Z,9.40
2017-11-10T17:37:08.875Z,9.40
2017-11-10T17:39:38.257Z,9.40
2017-11-10T17:42:07.342Z,9.40
2017-11-10T17:44:36.276Z,9.40
2017-11-10T17:47:05.278Z,9.40
2017-11-10T17:49:34.715Z,9.40
2017-11-10T17:52:04.585Z,9.30
2017-11-10T17:54:34.679Z,9.30
2017-11-10T17:57:03.357Z,9.30
2017-11-10T17:59:32.184Z,9.40
2017-11-10T18:02:01.082Z,9.40
2017-11-10T18:04:29.725Z,9.30
2017-11-10T18:07:05.686Z,9.40
2017-11-10T18:09:35.906Z,9.40
2017-11-10T18:12:05.756Z,9.40
2017-11-10T18:14:38.777Z,9.40
2017-11-10T18:17:07.265Z,9.40
2017-11-10T18:19:37.736Z,9.40
2017-11-10T18:22:06.948Z,9.40
2017-11-10T18:24:35.986Z,9.40
2017-11-10T18:27:04.776Z,9.40
2017-11-10T18:29:34.684Z,9.50
2017-11-10T18:32:03.777Z,9.40
2017-11-10T18:34:33.215Z,9.50
2017-11-10T18:37:02.016Z,9.50
2017-11-10T18:39:31.526Z,9.50
2017-11-10T18:42:01.555Z,9.50
2017-11-10T18:44:30.611Z,9.50
2017-11-10T18:47:00.405Z,9.60
2017-11-10T18:49:29.316Z,9.50
2017-11-10T18:52:00.684Z,9.50
2017-11-10T18:54:29.704Z,9.50
2017-11-10T18:56:58.416Z,9.50
2017-11-10T18:59:27.366Z,9.50
2017-11-10T19:01:57.588Z,9.40
2017-11-10T19:04:27.110Z,9.50
2017-11-10T19:06:55.917Z,9.50
2017-11-10T19:09:25.145Z,9.50
2017-11-10T19:11:54.366Z,9.50
2017-11-10T19:14:23.200Z,9.50
2017-11-10T19:16:52.488Z,9.40
2017-11-10T19:19:21.473Z,9.40
2017-11-10T19:21:50.465Z,9.40
2017-11-10T19:24:19.274Z,9.40
2017-11-10T19:26:47.766Z,9.40
2017-11-10T19:29:18.026Z,9.60
2017-11-10T19:31:47.885Z,9.70
2017-11-10T19:34:17.017Z,9.70
2017-11-10T19:36:46.718Z,9.60
2017-11-10T19:39:18.277Z,9.60
2017-11-10T19:41:47.904Z,9.60
2017-11-10T19:44:16.978Z,9.60
2017-11-10T19:46:46.906Z,9.50
2017-11-10T19:49:16.706Z,9.50
2017-11-10T19:51:46.555Z,9.40
2017-11-10T19:54:15.406Z,9.40
2017-11-10T19:56:45.795Z,9.40
2017-11-10T19:59:14.465Z,9.50
2017-11-10T20:01:51.696Z,9.50
2017-11-10T20:04:21.247Z,9.30
2017-11-10T20:06:49.894Z,9.30
2017-11-10T20:09:19.419Z,9.30
2017-11-10T20:11:51.965Z,9.20
2017-11-10T20:14:21.686Z,9.10
2017-11-10T20:16:51.155Z,9.10
2017-11-10T20:19:19.786Z,9.10
2017-11-10T20:21:48.695Z,9.20
2017-11-10T20:24:18.566Z,9.20
2017-11-10T20:26:48.895Z,9.30
2017-11-10T20:29:23.337Z,9.30
2017-11-10T20:31:52.575Z,9.30
2017-11-10T20:34:21.900Z,9.30
2017-11-10T20:36:53.885Z,9.40
2017-11-10T20:39:23.945Z,9.40
2017-11-10T20:41:55.876Z,9.40
2017-11-10T20:44:24.886Z,9.40
2017-11-10T20:46:53.906Z,9.40
2017-11-10T20:49:22.605Z,9.40
2017-11-10T20:51:56.516Z,9.40
2017-11-10T20:54:26.175Z,9.40
2017-11-10T20:57:00.395Z,9.30
2017-11-10T20:59:29.255Z,9.30
2017-11-10T21:01:58.474Z,9.50
2017-11-10T21:04:27.035Z,9.40
2017-11-10T21:06:57.136Z,9.50
2017-11-10T21:09:26.894Z,9.50
2017-11-10T21:11:55.600Z,9.50
2017-11-10T21:14:24.374Z,9.50
2017-11-10T21:16:54.414Z,9.50
2017-11-10T21:19:24.336Z,9.60
2017-11-10T21:21:58.785Z,9.60
2017-11-10T21:24:27.497Z,9.60
2017-11-10T21:26:57.434Z,9.70
2017-11-10T21:29:26.225Z,9.60
2017-11-10T21:31:55.206Z,9.60
2017-11-10T21:34:25.955Z,9.60
2017-11-10T21:36:54.674Z,9.60
2017-11-10T21:39:33.085Z,9.50
2017-11-10T21:42:03.185Z,9.50
2017-11-10T21:44:32.094Z,9.50
2017-11-10T21:47:01.846Z,9.50
2017-11-10T21:49:30.744Z,9.50
2017-11-10T21:51:59.484Z,9.50
2017-11-10T21:54:31.077Z,9.60
2017-11-10T21:57:00.075Z,9.60
2017-11-10T21:59:29.065Z,9.60
2017-11-10T22:02:02.355Z,9.60
2017-11-10T22:04:31.236Z,9.50
2017-11-10T22:07:02.886Z,9.60
2017-11-10T22:09:33.150Z,9.60
2017-11-10T22:12:01.924Z,9.60
2017-11-10T22:14:30.355Z,9.60
2017-11-10T22:17:00.615Z,9.60
2017-11-10T22:19:29.436Z,9.60
2017-11-10T22:21:58.655Z,9.60
2017-11-10T22:24:28.215Z,9.60
2017-11-10T22:26:56.748Z,9.50
2017-11-10T22:29:25.796Z,9.50
2017-11-10T22:31:55.485Z,9.50
2017-11-10T22:34:24.060Z,9.60
2017-11-10T22:36:52.695Z,9.50
2017-11-10T22:39:21.470Z,9.60
2017-11-10T22:41:50.406Z,9.60
2017-11-10T22:44:19.435Z,9.60
2017-11-10T22:46:48.436Z,9.70
2017-11-10T22:49:17.486Z,9.70
2017-11-10T22:51:48.565Z,9.70
2017-11-10T22:54:18.396Z,9.80
2017-11-10T22:56:46.855Z,9.80
2017-11-10T22:59:15.559Z,9.80
2017-11-10T23:01:44.326Z,9.70
2017-11-10T23:04:14.265Z,9.70
2017-11-10T23:06:51.476Z,9.80
2017-11-10T23:09:21.798Z,9.70
2017-11-10T23:11:53.066Z,9.70
2017-11-10T23:14:21.976Z,9.70
2017-11-10T23:16:51.036Z,9.70
2017-11-10T23:19:19.675Z,9.70
2017-11-10T23:21:50.013Z,9.70
2017-11-10T23:24:18.616Z,9.70
2017-11-10T23:26:51.215Z,9.70
2017-11-10T23:29:19.870Z,9.70
2017-11-10T23:31:49.305Z,9.70
2017-11-10T23:34:18.495Z,9.70
2017-11-10T23:36:47.195Z,9.70
2017-11-10T23:39:16.410Z,9.70
2017-11-10T23:41:45.536Z,9.70
2017-11-10T23:44:16.375Z,9.70
2017-11-10T23:46:46.045Z,9.60
2017-11-10T23:49:15.125Z,9.60
2017-11-10T23:51:44.094Z,9.60
2017-11-10T23:54:13.776Z,9.60
2017-11-10T23:56:42.715Z,9.60
2017-11-10T23:59:11.896Z,9.60
